Time;durP1;ratioP1;P1;durP2;ratioP2;P2;SDS_P1;SDS_P2;PMS_P1;PMS_P2;Temp;Humidity;BMP_temperature;BMP_pressure;BME280_temperature;BME280_humidity;BME280_pressure;Samples;Min_cycle;Max_cycle;Signal;HPM_P1;HPM_P2
2023/02/08 00:00:46;;;;;;;29.17;13.53;;;1.30;99.90;;;;;;4955782;28;20627;-72
2023/02/08 00:03:13;;;;;;;29.17;13.00;;;1.20;99.90;;;;;;4956244;28;20216;-67
2023/02/08 00:05:40;;;;;;;30.13;13.43;;;1.20;99.90;;;;;;4984385;28;20233;-73
2023/02/08 00:08:07;;;;;;;25.17;12.53;;;1.20;99.90;;;;;;4982727;28;20291;-67
2023/02/08 00:10:34;;;;;;;26.63;12.70;;;1.20;99.90;;;;;;4952920;28;20644;-73
2023/02/08 00:13:01;;;;;;;25.57;12.57;;;0.90;99.90;;;;;;4956533;28;20202;-68
2023/02/08 00:15:28;;;;;;;25.77;12.20;;;1.00;99.90;;;;;;4939573;28;20193;-66
2023/02/08 00:17:55;;;;;;;25.10;12.63;;;1.00;99.90;;;;;;4945021;28;20287;-70
2023/02/08 00:20:21;;;;;;;27.73;13.00;;;0.90;99.90;;;;;;4990899;28;20209;-65
2023/02/08 00:22:48;;;;;;;25.80;12.97;;;0.80;99.90;;;;;;4975591;28;20196;-69
2023/02/08 00:25:17;;;;;;;25.07;12.60;;;1.00;99.90;;;;;;4955221;28;20205;-64
2023/02/08 00:27:44;;;;;;;26.30;12.50;;;1.10;99.90;;;;;;4965650;28;20211;-63
2023/02/08 00:30:11;;;;;;;25.53;12.37;;;1.20;99.90;;;;;;4947415;28;20565;-63
2023/02/08 00:32:38;;;;;;;28.00;12.63;;;1.10;99.90;;;;;;4975088;28;20189;-65
2023/02/08 00:35:05;;;;;;;25.63;13.10;;;1.10;99.90;;;;;;4973249;28;20274;-63
2023/02/08 00:37:32;;;;;;;28.40;12.30;;;1.10;99.90;;;;;;4956271;28;20186;-73
2023/02/08 00:40:01;;;;;;;25.43;12.60;;;1.10;99.90;;;;;;4956642;28;20298;-65
2023/02/08 00:42:29;;;;;;;31.17;12.90;;;1.20;99.90;;;;;;4970203;28;20190;-77
2023/02/08 00:44:56;;;;;;;27.70;12.13;;;1.30;99.90;;;;;;4974935;28;20227;-70
2023/02/08 00:47:24;;;;;;;26.47;11.83;;;1.30;99.90;;;;;;4955839;28;20541;-74
2023/02/08 00:49:51;;;;;;;26.97;12.57;;;1.30;99.90;;;;;;4978634;28;20205;-72
2023/02/08 00:52:17;;;;;;;29.57;12.90;;;1.30;99.90;;;;;;4950428;28;20212;-70
2023/02/08 00:54:48;;;;;;;29.37;12.87;;;1.20;99.90;;;;;;4947731;28;20208;-73
2023/02/08 00:57:31;;;;;;;25.07;11.80;;;1.10;99.90;;;;;;4975922;28;20198;-64
2023/02/08 00:59:58;;;;;;;29.00;12.53;;;1.20;99.90;;;;;;4977298;28;20232;-70
2023/02/08 01:02:26;;;;;;;28.20;12.43;;;1.30;99.90;;;;;;4986073;28;20594;-62
2023/02/08 01:04:52;;;;;;;22.80;12.33;;;1.30;99.90;;;;;;4972973;28;20592;-73
2023/02/08 01:07:19;;;;;;;26.80;12.40;;;1.30;99.90;;;;;;4939497;28;20232;-63
2023/02/08 01:09:46;;;;;;;29.57;12.73;;;1.30;99.90;;;;;;4956030;28;20284;-63
2023/02/08 01:12:13;;;;;;;29.77;12.47;;;1.30;99.90;;;;;;4955060;28;20199;-65
2023/02/08 01:14:40;;;;;;;28.47;12.60;;;1.30;99.90;;;;;;4954371;28;20196;-66
2023/02/08 01:17:07;;;;;;;25.40;12.30;;;1.40;99.90;;;;;;4987013;28;20205;-60
2023/02/08 01:19:34;;;;;;;27.03;12.90;;;1.40;99.90;;;;;;4951932;28;20236;-66
2023/02/08 01:22:01;;;;;;;23.33;12.10;;;1.40;99.90;;;;;;4957632;28;20206;-63
2023/02/08 01:24:28;;;;;;;26.63;12.97;;;1.50;99.90;;;;;;4951185;28;20233;-66
2023/02/08 01:26:55;;;;;;;29.17;12.97;;;1.50;99.90;;;;;;4976720;28;20528;-63
2023/02/08 01:29:22;;;;;;;26.87;12.60;;;1.50;99.90;;;;;;4959708;28;20520;-77
2023/02/08 01:31:49;;;;;;;27.67;14.00;;;1.50;99.90;;;;;;4959657;28;20202;-63
2023/02/08 01:34:15;;;;;;;32.13;12.90;;;1.40;99.90;;;;;;4971764;28;20202;-69
2023/02/08 01:36:42;;;;;;;30.27;13.07;;;1.30;99.90;;;;;;4957253;28;20186;-64
2023/02/08 01:39:10;;;;;;;26.43;13.00;;;1.40;99.90;;;;;;4974702;28;20205;-66
2023/02/08 01:41:42;;;;;;;30.27;13.90;;;1.30;99.90;;;;;;4973237;28;20542;-65
2023/02/08 01:44:12;;;;;;;28.50;13.50;;;1.40;99.90;;;;;;4975526;28;20253;-67
2023/02/08 01:46:47;;;;;;;26.70;13.33;;;1.40;99.90;;;;;;4959285;28;20212;-68
2023/02/08 01:49:23;;;;;;;25.70;13.00;;;1.40;99.90;;;;;;4959414;28;20205;-77
2023/02/08 01:52:02;;;;;;;24.67;13.17;;;1.40;99.90;;;;;;4959590;28;20182;-79
2023/02/08 01:54:35;;;;;;;30.10;13.00;;;1.30;99.90;;;;;;4959409;28;20201;-75
2023/02/08 01:57:02;;;;;;;29.57;13.43;;;1.30;99.90;;;;;;4959290;28;20197;-73
2023/02/08 01:59:40;;;;;;;29.20;13.20;;;1.30;99.90;;;;;;4959339;28;20229;-68
2023/02/08 02:02:12;;;;;;;30.37;13.27;;;1.40;99.90;;;;;;4959381;28;20201;-75
2023/02/08 02:04:39;;;;;;;28.93;13.37;;;1.40;99.90;;;;;;4958521;28;20326;-78
2023/02/08 02:07:06;;;;;;;28.73;13.17;;;1.40;99.90;;;;;;4976799;28;20235;-73
2023/02/08 02:09:43;;;;;;;31.40;13.87;;;1.40;99.90;;;;;;4976339;28;20194;-67
2023/02/08 02:12:11;;;;;;;26.33;12.80;;;1.40;99.90;;;;;;4957529;28;20559;-67
2023/02/08 02:14:38;;;;;;;26.60;12.70;;;1.40;99.90;;;;;;4955442;28;20189;-64
2023/02/08 02:17:09;;;;;;;26.63;12.67;;;1.40;99.90;;;;;;4958803;28;20573;-69
2023/02/08 02:20:04;;;;;;;29.37;13.33;;;1.40;99.90;;;;;;4958757;28;20694;-67
2023/02/08 02:22:31;;;;;;;25.07;12.27;;;1.30;99.90;;;;;;4976015;28;20200;-72
2023/02/08 02:25:17;;;;;;;26.07;12.63;;;1.40;99.90;;;;;;4958317;28;20624;-68
2023/02/08 02:28:12;;;;;;;28.87;13.40;;;1.40;99.90;;;;;;4975819;28;20205;-72
2023/02/08 02:30:54;;;;;;;27.33;12.17;;;1.30;99.90;;;;;;4990951;28;20272;-71
2023/02/08 02:33:33;;;;;;;27.07;12.77;;;1.30;99.90;;;;;;4958022;28;20209;-69
2023/02/08 02:36:26;;;;;;;32.33;13.40;;;1.30;99.90;;;;;;4958339;28;20197;-71
2023/02/08 02:39:04;;;;;;;33.70;14.43;;;1.30;99.90;;;;;;4917027;29;20936;-70
2023/02/08 02:44:55;;;;;;;33.67;14.60;;;1.10;99.90;;;;;;4897031;29;20200;-76
2023/02/08 02:47:37;;;;;;;32.77;15.00;;;1.00;99.90;;;;;;4896915;29;20616;-81
2023/02/08 02:50:28;;;;;;;34.63;14.77;;;0.80;99.90;;;;;;4881613;29;20200;-76
2023/02/08 02:53:03;;;;;;;34.10;15.07;;;0.90;99.90;;;;;;4897557;29;20196;-80
2023/02/08 02:55:35;;;;;;;34.07;15.33;;;1.00;99.90;;;;;;4897294;29;20214;-81
2023/02/08 02:58:04;;;;;;;32.83;15.33;;;1.00;99.90;;;;;;4897296;29;20218;-75
2023/02/08 03:00:32;;;;;;;30.93;14.97;;;0.90;99.90;;;;;;4896750;29;20401;-81
2023/02/08 03:02:59;;;;;;;34.27;15.87;;;0.80;99.90;;;;;;4896802;29;20202;-67
2023/02/08 03:05:27;;;;;;;32.10;15.00;;;0.90;99.90;;;;;;4896777;29;20666;-67
2023/02/08 03:08:31;;;;;;;29.30;15.53;;;1.00;99.90;;;;;;4880852;29;20281;-68
2023/02/08 03:11:04;;;;;;;32.53;14.93;;;1.00;99.90;;;;;;4880830;29;20674;-68
2023/02/08 03:14:07;;;;;;;33.63;15.57;;;0.90;99.90;;;;;;4880596;29;20290;-72
2023/02/08 03:16:56;;;;;;;32.30;15.33;;;0.80;99.90;;;;;;4845191;29;20213;-67
2023/02/08 03:19:38;;;;;;;34.70;15.00;;;0.70;99.90;;;;;;4840496;29;20234;-76
2023/02/08 03:22:11;;;;;;;34.67;14.13;;;0.60;99.90;;;;;;4883553;29;20214;-68
2023/02/08 03:24:54;;;;;;;35.03;15.97;;;0.70;99.90;;;;;;4918314;29;20283;-66
2023/02/08 03:27:33;;;;;;;34.33;16.00;;;0.60;99.90;;;;;;4950033;29;20711;-66
2023/02/08 03:30:21;;;;;;;29.77;14.60;;;0.70;99.90;;;;;;4918126;29;20198;-66
2023/02/08 03:33:01;;;;;;;31.87;14.83;;;0.80;99.90;;;;;;4934190;29;20546;-66
2023/02/08 03:35:28;;;;;;;33.93;14.97;;;0.80;99.90;;;;;;4933414;29;20256;-71
2023/02/08 03:38:06;;;;;;;31.30;15.53;;;1.00;99.90;;;;;;4917892;29;20222;-67
2023/02/08 03:40:37;;;;;;;30.03;14.80;;;1.00;99.90;;;;;;4918088;29;20240;-68
2023/02/08 03:43:15;;;;;;;29.60;14.63;;;1.10;99.90;;;;;;4949492;28;20214;-67
2023/02/08 03:45:48;;;;;;;33.50;14.57;;;1.10;99.90;;;;;;4933372;29;20202;-67
2023/02/08 03:48:18;;;;;;;34.43;14.57;;;1.10;99.90;;;;;;4933825;29;20206;-66
2023/02/08 03:50:49;;;;;;;31.20;14.70;;;1.10;99.90;;;;;;4945827;29;20215;-67
2023/02/08 03:53:20;;;;;;;32.17;15.73;;;1.10;99.90;;;;;;4955083;29;20201;-68
2023/02/08 03:55:57;;;;;;;33.10;15.13;;;1.10;99.90;;;;;;4954695;28;20202;-67
2023/02/08 03:58:33;;;;;;;30.97;15.03;;;1.20;99.90;;;;;;4969761;28;20198;-68
2023/02/08 04:01:26;;;;;;;29.00;14.20;;;1.20;99.90;;;;;;4969720;28;20226;-68
2023/02/08 04:03:53;;;;;;;31.47;13.90;;;1.30;99.90;;;;;;4937239;29;20202;-72
2023/02/08 04:06:20;;;;;;;31.00;14.77;;;1.40;99.90;;;;;;4954357;29;20261;-67
2023/02/08 04:08:49;;;;;;;28.43;14.63;;;1.30;99.90;;;;;;4954713;29;20206;-69
2023/02/08 04:11:16;;;;;;;27.07;13.80;;;1.30;99.90;;;;;;4954593;29;20198;-66
2023/02/08 04:13:43;;;;;;;30.67;14.10;;;1.30;99.90;;;;;;4969507;28;20198;-67
2023/02/08 04:16:13;;;;;;;31.80;14.80;;;1.30;99.90;;;;;;4937103;29;20194;-66
2023/02/08 04:18:40;;;;;;;34.80;15.03;;;1.30;99.90;;;;;;4969456;28;20217;-67
2023/02/08 04:21:07;;;;;;;34.03;15.13;;;1.30;99.90;;;;;;4937199;29;20803;-72
2023/02/08 04:23:34;;;;;;;34.47;15.97;;;1.30;99.90;;;;;;4969256;28;20209;-66
2023/02/08 04:26:03;;;;;;;34.83;15.67;;;1.40;99.90;;;;;;4937068;29;20261;-65
2023/02/08 04:28:30;;;;;;;32.67;15.70;;;1.30;99.90;;;;;;4937251;29;20221;-68
2023/02/08 04:30:57;;;;;;;31.27;15.53;;;1.30;99.90;;;;;;4937016;29;20209;-66
2023/02/08 04:33:25;;;;;;;34.33;15.67;;;1.30;99.90;;;;;;4937279;29;20193;-66
2023/02/08 04:35:52;;;;;;;31.73;15.57;;;1.20;99.90;;;;;;4936930;29;20201;-66
2023/02/08 04:38:19;;;;;;;36.50;16.33;;;1.20;99.90;;;;;;4937015;29;20197;-66
2023/02/08 04:40:46;;;;;;;36.97;16.40;;;1.30;99.90;;;;;;4954165;29;20225;-65
2023/02/08 04:43:13;;;;;;;30.73;16.20;;;1.20;99.90;;;;;;4936974;29;20293;-65
2023/02/08 04:45:39;;;;;;;33.20;16.13;;;1.30;99.90;;;;;;4936809;29;20293;-66
2023/02/08 04:48:06;;;;;;;32.90;16.23;;;1.30;99.90;;;;;;4936849;29;20194;-67
2023/02/08 04:50:34;;;;;;;34.57;16.33;;;1.20;99.90;;;;;;4936998;29;20201;-66
2023/02/08 04:53:01;;;;;;;32.40;15.87;;;1.20;99.90;;;;;;4937006;29;20675;-68
2023/02/08 04:55:27;;;;;;;37.53;15.87;;;1.20;99.90;;;;;;4956041;28;20204;-67
2023/02/08 04:57:54;;;;;;;36.70;17.20;;;1.20;99.90;;;;;;4941150;29;20201;-67
2023/02/08 05:00:21;;;;;;;35.67;16.43;;;1.20;99.90;;;;;;4941165;29;20681;-77
2023/02/08 05:02:54;;;;;;;35.23;16.30;;;1.20;99.90;;;;;;4940974;29;20202;-72
2023/02/08 05:05:21;;;;;;;36.73;16.47;;;1.20;99.90;;;;;;4940464;29;20224;-77
2023/02/08 05:07:48;;;;;;;39.67;17.23;;;1.20;99.90;;;;;;4958083;28;20234;-79
2023/02/08 05:10:15;;;;;;;37.93;16.97;;;1.10;99.90;;;;;;4941422;29;20208;-79
2023/02/08 05:12:42;;;;;;;36.40;16.83;;;1.10;99.90;;;;;;4956482;28;20208;-76
2023/02/08 05:15:11;;;;;;;39.37;17.77;;;1.10;99.90;;;;;;4960107;28;20651;-80
2023/02/08 05:17:38;;;;;;;38.80;17.87;;;1.10;99.90;;;;;;4992255;28;20212;-80
2023/02/08 05:20:06;;;;;;;35.63;17.17;;;1.10;99.90;;;;;;4959854;28;20193;-78
2023/02/08 05:22:33;;;;;;;38.00;17.23;;;1.10;99.90;;;;;;4992487;28;20670;-79
2023/02/08 05:25:00;;;;;;;37.43;17.83;;;1.10;99.90;;;;;;4960364;28;20217;-80
2023/02/08 05:27:27;;;;;;;40.37;18.63;;;1.10;99.90;;;;;;4992170;28;20205;-80
2023/02/08 05:29:54;;;;;;;38.07;18.53;;;1.10;99.90;;;;;;4960301;28;20197;-80
2023/02/08 05:32:23;;;;;;;42.00;18.57;;;1.10;99.90;;;;;;4977275;28;20194;-79
2023/02/08 05:34:50;;;;;;;39.00;18.20;;;1.10;99.90;;;;;;4959652;28;20209;-74
2023/02/08 05:37:16;;;;;;;40.93;18.87;;;1.10;99.90;;;;;;4959499;28;20205;-74
2023/02/08 05:39:43;;;;;;;37.83;18.67;;;1.10;99.90;;;;;;4959868;28;20208;-79
2023/02/08 05:42:10;;;;;;;42.57;20.13;;;1.10;99.90;;;;;;4992557;28;20687;-80
2023/02/08 05:44:37;;;;;;;39.93;19.10;;;1.10;99.90;;;;;;4992276;28;20535;-76
2023/02/08 05:47:04;;;;;;;42.83;19.93;;;1.10;99.90;;;;;;4959324;28;20200;-72
2023/02/08 05:49:31;;;;;;;44.57;19.67;;;1.10;99.90;;;;;;4959357;28;20205;-66
2023/02/08 05:51:57;;;;;;;43.27;19.20;;;1.10;99.90;;;;;;4991524;28;20208;-66
2023/02/08 05:54:24;;;;;;;42.80;20.20;;;1.10;99.90;;;;;;4969638;28;20202;-66
2023/02/08 05:56:51;;;;;;;45.20;20.87;;;1.10;99.90;;;;;;4972103;28;20238;-66
2023/02/08 05:59:18;;;;;;;41.63;19.10;;;1.10;99.90;;;;;;4956061;29;20208;-66
2023/02/08 06:01:46;;;;;;;41.90;20.00;;;1.10;99.90;;;;;;4970548;28;20319;-65
2023/02/08 06:04:12;;;;;;;44.47;20.13;;;1.10;99.90;;;;;;4963110;28;20299;-66
2023/02/08 06:06:39;;;;;;;45.87;20.47;;;1.10;99.90;;;;;;4975534;28;20284;-71
2023/02/08 06:09:06;;;;;;;47.27;20.63;;;1.10;99.90;;;;;;4958515;28;20205;-66
2023/02/08 06:11:34;;;;;;;45.23;20.57;;;1.20;99.90;;;;;;4957697;28;20193;-65
2023/02/08 06:14:02;;;;;;;44.53;20.97;;;1.10;99.90;;;;;;4958642;28;20217;-67
2023/02/08 06:16:29;;;;;;;45.83;21.53;;;1.10;99.90;;;;;;4958793;28;20197;-69
2023/02/08 06:18:56;;;;;;;42.83;20.77;;;1.10;99.90;;;;;;4976327;28;20244;-79
2023/02/08 06:21:23;;;;;;;44.37;20.47;;;1.10;99.90;;;;;;4958764;28;20213;-77
2023/02/08 06:23:50;;;;;;;43.83;21.43;;;1.10;99.90;;;;;;4959287;28;20288;-82
2023/02/08 06:26:17;;;;;;;45.80;19.90;;;1.20;99.90;;;;;;4970723;28;20201;-64
2023/02/08 06:28:44;;;;;;;50.73;21.17;;;1.10;99.90;;;;;;4977912;28;20212;-63
2023/02/08 06:31:11;;;;;;;45.60;20.50;;;1.00;99.90;;;;;;4985801;28;20190;-68
2023/02/08 06:33:37;;;;;;;48.47;21.07;;;1.00;99.90;;;;;;4989251;28;20670;-65
2023/02/08 06:36:05;;;;;;;48.57;20.77;;;1.00;99.90;;;;;;4954975;28;20202;-66
2023/02/08 06:38:32;;;;;;;49.63;22.07;;;1.00;99.90;;;;;;4953345;28;20204;-74
2023/02/08 06:40:59;;;;;;;47.20;22.33;;;1.00;99.90;;;;;;4974691;28;20288;-72
2023/02/08 06:43:25;;;;;;;41.73;20.53;;;0.90;99.90;;;;;;4975407;28;20197;-66
2023/02/08 06:45:52;;;;;;;41.63;18.97;;;0.90;99.90;;;;;;4957964;28;20248;-65
2023/02/08 06:48:19;;;;;;;44.67;19.90;;;0.80;99.90;;;;;;4958388;28;20668;-65
2023/02/08 06:50:46;;;;;;;44.77;19.77;;;0.80;99.90;;;;;;4975614;28;20372;-64
2023/02/08 06:53:13;;;;;;;45.20;20.17;;;0.80;99.90;;;;;;4990176;28;20706;-71
2023/02/08 06:55:40;;;;;;;45.50;19.17;;;0.80;99.90;;;;;;4960002;28;20215;-81
2023/02/08 06:58:08;;;;;;;45.80;19.97;;;0.70;99.90;;;;;;4960830;28;20202;-82
2023/02/08 07:00:37;;;;;;;43.00;19.37;;;0.80;99.90;;;;;;4979198;28;20220;-79
2023/02/08 07:03:05;;;;;;;38.77;18.47;;;0.90;99.90;;;;;;4936880;28;20217;-85
2023/02/08 07:05:35;;;;;;;37.33;17.10;;;0.90;99.90;;;;;;4974577;28;20237;-75
2023/02/08 07:08:02;;;;;;;34.47;15.77;;;0.90;99.90;;;;;;4969302;28;20245;-73
2023/02/08 07:10:29;;;;;;;33.00;16.03;;;0.80;99.90;;;;;;4958834;28;20701;-72
2023/02/08 07:12:56;;;;;;;32.23;16.17;;;0.80;99.90;;;;;;4975141;28;20252;-73
2023/02/08 07:15:23;;;;;;;37.70;16.37;;;0.80;99.90;;;;;;4964084;28;20658;-76
2023/02/08 07:17:50;;;;;;;35.90;15.70;;;0.80;99.90;;;;;;4958237;28;20237;-74
2023/02/08 07:20:17;;;;;;;31.90;15.30;;;0.90;99.90;;;;;;4987828;28;21007;-74
2023/02/08 07:22:43;;;;;;;35.37;15.83;;;1.00;99.90;;;;;;4974551;28;20362;-73
2023/02/08 07:25:10;;;;;;;32.80;15.27;;;1.00;99.90;;;;;;4961898;28;20193;-75
2023/02/08 07:27:37;;;;;;;32.40;15.20;;;1.00;99.90;;;;;;4975080;28;20219;-75
2023/02/08 07:30:07;;;;;;;32.60;15.17;;;1.00;99.90;;;;;;4958188;28;20219;-74
2023/02/08 07:32:34;;;;;;;33.77;13.77;;;1.00;99.90;;;;;;4957011;28;20198;-81
2023/02/08 07:35:01;;;;;;;31.67;13.97;;;1.00;99.90;;;;;;4970731;28;20219;-78
2023/02/08 07:37:28;;;;;;;30.53;14.23;;;0.80;99.90;;;;;;4958080;28;20217;-78
2023/02/08 07:39:55;;;;;;;30.77;13.43;;;0.70;99.90;;;;;;4957497;28;20201;-78
2023/02/08 07:42:22;;;;;;;27.73;13.53;;;0.90;99.90;;;;;;4957545;28;20283;-76
2023/02/08 07:44:49;;;;;;;33.83;14.60;;;0.90;99.90;;;;;;4940818;29;20309;-77
2023/02/08 07:47:18;;;;;;;31.17;14.03;;;1.00;99.90;;;;;;4961159;28;20236;-77
2023/02/08 07:49:45;;;;;;;33.50;14.13;;;1.00;99.90;;;;;;4957649;28;20204;-76
2023/02/08 07:52:12;;;;;;;34.33;15.20;;;1.00;99.90;;;;;;4957873;28;20228;-78
2023/02/08 07:54:38;;;;;;;30.27;14.10;;;0.90;99.90;;;;;;4957701;28;20198;-76
2023/02/08 07:57:05;;;;;;;34.87;15.73;;;0.70;99.90;;;;;;4974685;28;20200;-74
2023/02/08 07:59:32;;;;;;;33.67;15.07;;;0.50;99.90;;;;;;4989877;28;20294;-73
2023/02/08 08:01:59;;;;;;;33.10;14.60;;;0.60;99.90;;;;;;4972914;28;20224;-74
2023/02/08 08:04:26;;;;;;;35.83;14.90;;;0.60;99.90;;;;;;4959737;28;20190;-75
2023/02/08 08:06:56;;;;;;;35.40;15.73;;;0.70;99.90;;;;;;4969939;28;20226;-73
2023/02/08 08:09:23;;;;;;;33.07;14.53;;;0.70;99.90;;;;;;4956044;28;20204;-74
2023/02/08 08:11:50;;;;;;;31.07;14.27;;;0.70;99.90;;;;;;4957464;28;20204;-73
2023/02/08 08:14:17;;;;;;;36.87;15.40;;;0.70;99.90;;;;;;4956879;28;20600;-74
2023/02/08 08:16:44;;;;;;;32.60;14.50;;;0.80;99.90;;;;;;4956852;28;20189;-74
2023/02/08 08:19:10;;;;;;;33.77;15.80;;;0.80;99.90;;;;;;4989348;28;20194;-73
2023/02/08 08:21:38;;;;;;;36.10;15.43;;;1.00;99.90;;;;;;4956826;28;20244;-74
2023/02/08 08:24:05;;;;;;;31.93;15.17;;;1.00;99.90;;;;;;4988940;28;20193;-74
2023/02/08 08:26:31;;;;;;;31.43;15.27;;;1.00;99.90;;;;;;4988939;28;20237;-72
2023/02/08 08:28:58;;;;;;;31.77;14.50;;;1.10;99.90;;;;;;4956276;28;20561;-74
2023/02/08 08:31:25;;;;;;;31.17;15.17;;;1.10;99.90;;;;;;4973410;28;20642;-73
2023/02/08 08:33:54;;;;;;;31.50;14.57;;;1.20;99.90;;;;;;4956515;28;20236;-73
2023/02/08 08:36:21;;;;;;;33.77;14.53;;;1.10;99.90;;;;;;4956825;28;20197;-72
2023/02/08 08:38:48;;;;;;;34.37;15.10;;;1.20;99.90;;;;;;4956680;28;20205;-73
2023/02/08 08:41:21;;;;;;;30.80;15.00;;;1.30;99.90;;;;;;4974172;28;20283;-72
2023/02/08 08:43:48;;;;;;;36.90;16.03;;;1.40;99.90;;;;;;4986595;28;20234;-73
2023/02/08 08:46:15;;;;;;;39.83;15.43;;;1.50;99.90;;;;;;4956191;28;20202;-74
2023/02/08 08:48:42;;;;;;;31.20;14.80;;;1.60;99.90;;;;;;4987625;28;20711;-72
2023/02/08 08:51:09;;;;;;;35.83;14.53;;;1.60;99.90;;;;;;4956173;28;20204;-71
2023/02/08 08:53:36;;;;;;;29.47;15.27;;;1.60;99.90;;;;;;4973498;28;20205;-72
2023/02/08 08:56:04;;;;;;;31.63;14.13;;;1.70;99.90;;;;;;4988609;28;20205;-74
2023/02/08 08:58:31;;;;;;;32.90;14.90;;;1.80;99.90;;;;;;4956412;28;20202;-74
2023/02/08 09:00:59;;;;;;;30.50;14.47;;;1.80;99.90;;;;;;4988466;28;20202;-72
2023/02/08 09:03:27;;;;;;;31.33;13.80;;;1.90;99.90;;;;;;4973914;28;20208;-72
2023/02/08 09:05:55;;;;;;;33.17;14.37;;;1.90;99.90;;;;;;4955652;28;20218;-73
2023/02/08 09:08:22;;;;;;;30.13;13.67;;;2.00;99.90;;;;;;4956395;28;20635;-72
2023/02/08 09:10:49;;;;;;;29.40;13.70;;;1.90;99.90;;;;;;4988461;28;20197;-72
2023/02/08 09:13:26;;;;;;;30.53;13.90;;;2.00;99.90;;;;;;4956339;28;20189;-74
2023/02/08 09:15:53;;;;;;;28.07;13.60;;;2.00;99.90;;;;;;4955182;28;20193;-72
2023/02/08 09:18:20;;;;;;;26.37;12.80;;;2.00;99.90;;;;;;4956324;28;20233;-72
2023/02/08 09:20:47;;;;;;;30.40;13.70;;;2.10;99.90;;;;;;4973612;28;20206;-73
2023/02/08 09:23:14;;;;;;;28.03;13.10;;;2.10;99.90;;;;;;4973530;28;20300;-72
2023/02/08 09:25:40;;;;;;;28.13;13.20;;;2.20;99.90;;;;;;4956187;28;20216;-72
2023/02/08 09:28:07;;;;;;;28.67;13.17;;;2.30;99.90;;;;;;4988537;28;20235;-75
2023/02/08 09:30:34;;;;;;;26.13;12.80;;;2.40;99.90;;;;;;4956005;28;20233;-74
2023/02/08 09:33:01;;;;;;;29.20;13.10;;;2.50;99.90;;;;;;4954804;28;20288;-72
2023/02/08 09:35:28;;;;;;;26.63;12.43;;;2.70;99.90;;;;;;4955376;28;20193;-72
2023/02/08 09:37:56;;;;;;;27.33;12.63;;;2.90;99.90;;;;;;4956020;28;20577;-74
2023/02/08 09:40:31;;;;;;;24.67;11.80;;;2.80;99.90;;;;;;4939948;28;20202;-72
2023/02/08 09:43:20;;;;;;;23.47;11.00;;;2.60;99.90;;;;;;4990767;28;20324;-73
2023/02/08 09:45:54;;;;;;;17.87;9.57;;;2.70;99.90;;;;;;4976349;28;20197;-72
2023/02/08 09:48:39;;;;;;;20.77;9.97;;;2.70;99.90;;;;;;4976667;28;20214;-71
2023/02/08 09:51:13;;;;;;;19.20;9.77;;;2.80;99.90;;;;;;4976651;28;20201;-74
2023/02/08 09:53:46;;;;;;;22.43;9.93;;;2.90;99.90;;;;;;4958261;28;20204;-77
2023/02/08 09:56:15;;;;;;;15.33;7.70;;;2.80;99.90;;;;;;4990579;28;20671;-74
2023/02/08 09:58:44;;;;;;;16.73;6.90;;;2.90;99.90;;;;;;4991043;28;20710;-73
2023/02/08 10:01:27;;;;;;;16.20;7.77;;;2.90;99.90;;;;;;4958769;28;20682;-73
2023/02/08 10:03:59;;;;;;;12.57;6.93;;;2.90;99.90;;;;;;4978900;28;20206;-73
2023/02/08 10:06:27;;;;;;;15.47;7.23;;;2.80;99.90;;;;;;4951398;28;20239;-74
2023/02/08 10:08:55;;;;;;;14.80;6.40;;;2.60;99.90;;;;;;4957497;28;20686;-73
2023/02/08 10:11:56;;;;;;;13.40;6.63;;;2.40;99.90;;;;;;4958472;28;20205;-75
2023/02/08 10:14:48;;;;;;;12.63;6.67;;;2.30;99.90;;;;;;4955111;28;20221;-74
2023/02/08 10:17:27;;;;;;;14.30;6.13;;;2.30;99.90;;;;;;4954504;28;20207;-72
2023/02/08 10:20:03;;;;;;;11.87;5.97;;;2.40;99.90;;;;;;4972813;28;20209;-70
2023/02/08 10:22:54;;;;;;;9.93;6.10;;;2.60;99.90;;;;;;4974420;28;20221;-73
2023/02/08 10:25:32;;;;;;;12.13;5.43;;;2.50;99.90;;;;;;4957425;28;20552;-73
2023/02/08 10:28:08;;;;;;;8.43;4.83;;;2.50;99.90;;;;;;4986547;28;20207;-73
2023/02/08 10:30:44;;;;;;;9.97;4.37;;;2.60;99.90;;;;;;4954612;28;20197;-72
2023/02/08 10:33:25;;;;;;;7.50;3.93;;;2.80;99.90;;;;;;4952437;28;20198;-72
2023/02/08 10:35:53;;;;;;;8.33;3.97;;;2.50;99.90;;;;;;4988567;28;20222;-74
2023/02/08 10:38:28;;;;;;;6.90;3.50;;;2.60;99.90;;;;;;4971159;28;20210;-75
2023/02/08 10:41:19;;;;;;;6.07;3.17;;;2.60;99.90;;;;;;4987222;28;20569;-75
2023/02/08 10:43:54;;;;;;;7.10;2.90;;;2.70;99.90;;;;;;4955064;28;20283;-73
2023/02/08 10:46:39;;;;;;;5.97;3.07;;;2.50;99.90;;;;;;4950540;28;20657;-74
2023/02/08 10:49:28;;;;;;;5.80;2.87;;;2.60;99.90;;;;;;4969146;28;20198;-73
2023/02/08 10:51:55;;;;;;;7.60;3.00;;;2.60;99.90;;;;;;4951269;28;20573;-75
2023/02/08 10:54:22;;;;;;;4.60;2.90;;;2.60;99.90;;;;;;4985538;28;20190;-74
2023/02/08 10:56:59;;;;;;;4.33;2.27;;;2.50;99.90;;;;;;4954035;28;20209;-73
2023/02/08 10:59:34;;;;;;;4.73;2.53;;;2.40;99.90;;;;;;4977199;28;20195;-72
2023/02/08 11:02:01;;;;;;;5.23;2.60;;;2.40;99.90;;;;;;4959701;28;20210;-71
2023/02/08 11:04:28;;;;;;;5.40;3.07;;;2.50;99.90;;;;;;4938679;29;20206;-72
2023/02/08 11:06:55;;;;;;;4.37;2.43;;;2.70;99.90;;;;;;4939876;28;20237;-71
2023/02/08 11:09:23;;;;;;;5.07;2.70;;;2.80;99.90;;;;;;4955400;28;20216;-70
2023/02/08 11:11:51;;;;;;;5.63;2.60;;;2.90;99.90;;;;;;4955129;28;20190;-72
2023/02/08 11:14:50;;;;;;;5.10;2.37;;;2.90;99.90;;;;;;4945515;28;20212;-73
2023/02/08 11:17:32;;;;;;;4.57;2.50;;;2.90;99.90;;;;;;4951082;28;20201;-72
2023/02/08 11:20:00;;;;;;;5.03;2.50;;;2.90;99.90;;;;;;4957546;28;20209;-72
2023/02/08 11:22:33;;;;;;;4.70;2.60;;;3.00;99.90;;;;;;4963202;28;20225;-74
2023/02/08 11:25:31;;;;;;;4.10;2.27;;;2.60;99.90;;;;;;4943417;28;20191;-73
2023/02/08 11:27:59;;;;;;;4.83;2.47;;;2.70;99.90;;;;;;4938148;29;20222;-73
2023/02/08 11:30:26;;;;;;;4.97;2.40;;;2.50;99.90;;;;;;4955809;29;20558;-74
2023/02/08 11:33:14;;;;;;;7.37;2.57;;;2.40;99.90;;;;;;4938104;29;20254;-74
2023/02/08 11:35:41;;;;;;;5.30;2.67;;;2.30;99.90;;;;;;4937783;29;20612;-74
2023/02/08 11:38:18;;;;;;;5.60;2.80;;;2.30;99.90;;;;;;4938061;29;20228;-73
2023/02/08 11:40:45;;;;;;;7.30;3.50;;;2.30;99.90;;;;;;4969981;28;20538;-75
2023/02/08 11:43:27;;;;;;;7.37;3.60;;;2.10;99.90;;;;;;4938203;29;20233;-71
2023/02/08 11:45:56;;;;;;;7.73;3.57;;;2.00;99.90;;;;;;4966399;28;20540;-71
2023/02/08 11:48:39;;;;;;;7.37;3.50;;;2.00;99.90;;;;;;4954980;28;20293;-75
2023/02/08 11:51:08;;;;;;;6.63;3.93;;;1.80;99.90;;;;;;4950935;28;20194;-72
2023/02/08 11:53:39;;;;;;;5.80;3.60;;;1.80;99.90;;;;;;4965066;28;20201;-71
2023/02/08 11:56:23;;;;;;;6.63;3.73;;;1.70;99.90;;;;;;4954695;28;20197;-76
2023/02/08 11:59:11;;;;;;;7.00;3.73;;;1.90;99.90;;;;;;4987991;28;20205;-75
2023/02/08 12:01:40;;;;;;;8.10;3.97;;;1.90;99.90;;;;;;4952674;28;20190;-74
2023/02/08 12:04:10;;;;;;;7.93;3.70;;;2.20;99.90;;;;;;4956327;28;20213;-72
2023/02/08 12:06:43;;;;;;;6.53;3.53;;;2.20;99.90;;;;;;4970259;28;20599;-75
2023/02/08 12:09:41;;;;;;;7.73;3.60;;;2.30;99.90;;;;;;4957496;28;20206;-73
2023/02/08 12:12:12;;;;;;;8.47;3.70;;;2.40;99.90;;;;;;4967534;28;20284;-69
2023/02/08 12:14:50;;;;;;;9.82;4.60;;;2.30;99.90;;;;;;4956580;28;20440;-70
2023/02/08 12:17:23;;;;;;;10.52;4.90;;;2.30;99.90;;;;;;4971655;28;20436;-71
2023/02/08 12:20:22;;;;;;;8.27;4.43;;;2.50;99.90;;;;;;4971590;28;20963;-70
2023/02/08 12:23:19;;;;;;;8.95;4.78;;;2.80;99.90;;;;;;4968537;28;20454;-71
2023/02/08 12:25:55;;;;;;;7.00;3.90;;;2.80;99.90;;;;;;4955969;28;20200;-71
2023/02/08 12:28:52;;;;;;;6.40;3.80;;;2.80;99.90;;;;;;4956323;28;20216;-70
2023/02/08 12:31:54;;;;;;;6.80;3.73;;;2.80;99.90;;;;;;4954058;28;20198;-72
2023/02/08 12:34:48;;;;;;;8.13;4.23;;;3.00;99.90;;;;;;4955209;28;20452;-69
2023/02/08 12:40:48;;;;;;;6.23;3.50;;;3.50;99.90;;;;;;4988526;28;20639;-70
2023/02/08 12:43:36;;;;;;;8.50;3.60;;;3.20;99.90;;;;;;4982973;28;20229;-72
2023/02/08 12:46:25;;;;;;;7.93;3.60;;;3.40;99.90;;;;;;4952243;28;20219;-70
2023/02/08 12:49:33;;;;;;;6.93;3.53;;;3.20;99.90;;;;;;4954020;28;20617;-71
2023/02/08 12:52:12;;;;;;;7.17;4.00;;;3.10;99.90;;;;;;4970041;28;20224;-70
2023/02/08 12:54:57;;;;;;;7.00;3.87;;;3.20;99.90;;;;;;4952252;28;20666;-72
2023/02/08 12:57:26;;;;;;;7.50;3.93;;;3.30;99.90;;;;;;4953504;28;20202;-69
2023/02/08 12:59:56;;;;;;;7.80;3.90;;;3.40;99.90;;;;;;4985329;28;20194;-70
2023/02/08 13:02:43;;;;;;;7.87;4.03;;;3.30;99.90;;;;;;4973358;28;20317;-69
2023/02/08 13:05:17;;;;;;;6.40;3.80;;;3.20;99.90;;;;;;4955810;28;20234;-75
2023/02/08 13:07:48;;;;;;;9.97;4.33;;;3.40;99.90;;;;;;4956002;28;20687;-77
2023/02/08 13:10:40;;;;;;;8.80;4.40;;;3.20;99.90;;;;;;4956894;28;20208;-81